sensor_id;sensor_type;location;lat;lon;timestamp;P1;durP1;ratioP1;P2;durP2;ratioP2
18748;SDS011;9503;53.560;10.246;2022-12-18T00:02:03;27.63;;;13.40;;
18748;SDS011;9503;53.560;10.246;2022-12-18T00:04:29;31.67;;;14.27;;
18748;SDS011;9503;53.560;10.246;2022-12-18T00:06:56;26.03;;;13.77;;
18748;SDS011;9503;53.560;10.246;2022-12-18T00:09:23;27.63;;;13.87;;
18748;SDS011;9503;53.560;10.246;2022-12-18T00:11:50;31.50;;;14.33;;
18748;SDS011;9503;53.560;10.246;2022-12-18T00:14:16;26.93;;;12.90;;
18748;SDS011;9503;53.560;10.246;2022-12-18T00:16:45;29.10;;;12.40;;
18748;SDS011;9503;53.560;10.246;2022-12-18T00:19:12;31.07;;;14.10;;
18748;SDS011;9503;53.560;10.246;2022-12-18T00:21:39;30.63;;;13.83;;
18748;SDS011;9503;53.560;10.246;2022-12-18T00:24:07;28.13;;;13.57;;
18748;SDS011;9503;53.560;10.246;2022-12-18T00:26:34;33.90;;;15.07;;
18748;SDS011;9503;53.560;10.246;2022-12-18T00:29:03;28.80;;;14.20;;
18748;SDS011;9503;53.560;10.246;2022-12-18T00:31:31;24.60;;;13.07;;
18748;SDS011;9503;53.560;10.246;2022-12-18T00:34:00;27.67;;;13.57;;
18748;SDS011;9503;53.560;10.246;2022-12-18T00:36:29;25.60;;;12.87;;
18748;SDS011;9503;53.560;10.246;2022-12-18T00:38:58;30.70;;;14.83;;
18748;SDS011;9503;53.560;10.246;2022-12-18T00:41:26;31.00;;;14.30;;
18748;SDS011;9503;53.560;10.246;2022-12-18T00:44:12;32.33;;;14.63;;
18748;SDS011;9503;53.560;10.246;2022-12-18T00:46:40;30.23;;;13.40;;
18748;SDS011;9503;53.560;10.246;2022-12-18T00:49:08;30.33;;;14.57;;
18748;SDS011;9503;53.560;10.246;2022-12-18T00:51:35;25.43;;;12.87;;
18748;SDS011;9503;53.560;10.246;2022-12-18T00:54:02;30.13;;;13.00;;
18748;SDS011;9503;53.560;10.246;2022-12-18T00:56:28;28.33;;;12.83;;
18748;SDS011;9503;53.560;10.246;2022-12-18T00:58:55;31.63;;;13.00;;
18748;SDS011;9503;53.560;10.246;2022-12-18T01:01:22;28.37;;;13.00;;
18748;SDS011;9503;53.560;10.246;2022-12-18T01:03:48;26.77;;;12.60;;
18748;SDS011;9503;53.560;10.246;2022-12-18T01:06:16;29.93;;;12.70;;
18748;SDS011;9503;53.560;10.246;2022-12-18T01:08:43;32.87;;;14.43;;
18748;SDS011;9503;53.560;10.246;2022-12-18T01:11:11;33.77;;;15.47;;
18748;SDS011;9503;53.560;10.246;2022-12-18T01:13:39;35.50;;;15.97;;
18748;SDS011;9503;53.560;10.246;2022-12-18T01:16:06;32.00;;;14.80;;
18748;SDS011;9503;53.560;10.246;2022-12-18T01:18:34;25.57;;;12.53;;
18748;SDS011;9503;53.560;10.246;2022-12-18T01:21:02;29.57;;;12.20;;
18748;SDS011;9503;53.560;10.246;2022-12-18T01:23:33;24.77;;;12.13;;
18748;SDS011;9503;53.560;10.246;2022-12-18T01:26:03;26.20;;;13.83;;
18748;SDS011;9503;53.560;10.246;2022-12-18T01:28:31;28.53;;;13.40;;
18748;SDS011;9503;53.560;10.246;2022-12-18T01:30:57;28.50;;;12.60;;
18748;SDS011;9503;53.560;10.246;2022-12-18T01:33:34;22.90;;;11.80;;
18748;SDS011;9503;53.560;10.246;2022-12-18T01:36:01;23.30;;;12.07;;
18748;SDS011;9503;53.560;10.246;2022-12-18T01:38:28;33.37;;;12.77;;
18748;SDS011;9503;53.560;10.246;2022-12-18T01:40:58;31.03;;;13.43;;
18748;SDS011;9503;53.560;10.246;2022-12-18T01:46:10;29.93;;;12.90;;
18748;SDS011;9503;53.560;10.246;2022-12-18T01:48:36;27.43;;;11.23;;
18748;SDS011;9503;53.560;10.246;2022-12-18T01:51:04;28.03;;;12.70;;
18748;SDS011;9503;53.560;10.246;2022-12-18T01:53:34;26.17;;;12.13;;
18748;SDS011;9503;53.560;10.246;2022-12-18T01:56:03;23.57;;;11.67;;
18748;SDS011;9503;53.560;10.246;2022-12-18T01:58:32;22.50;;;10.73;;
18748;SDS011;9503;53.560;10.246;2022-12-18T02:01:05;24.83;;;11.70;;
18748;SDS011;9503;53.560;10.246;2022-12-18T02:03:32;29.00;;;12.00;;
18748;SDS011;9503;53.560;10.246;2022-12-18T02:06:00;26.87;;;12.40;;
18748;SDS011;9503;53.560;10.246;2022-12-18T02:08:36;24.27;;;12.17;;
18748;SDS011;9503;53.560;10.246;2022-12-18T02:11:10;28.40;;;13.43;;
18748;SDS011;9503;53.560;10.246;2022-12-18T02:13:46;29.23;;;13.40;;
18748;SDS011;9503;53.560;10.246;2022-12-18T02:16:24;27.73;;;13.13;;
18748;SDS011;9503;53.560;10.246;2022-12-18T02:18:57;23.33;;;12.07;;
18748;SDS011;9503;53.560;10.246;2022-12-18T02:21:28;29.90;;;12.87;;
18748;SDS011;9503;53.560;10.246;2022-12-18T02:24:07;22.77;;;11.80;;
18748;SDS011;9503;53.560;10.246;2022-12-18T02:26:45;29.60;;;12.10;;
18748;SDS011;9503;53.560;10.246;2022-12-18T02:29:16;23.17;;;10.90;;
18748;SDS011;9503;53.560;10.246;2022-12-18T02:31:47;24.73;;;10.77;;
18748;SDS011;9503;53.560;10.246;2022-12-18T02:34:17;21.80;;;11.40;;
18748;SDS011;9503;53.560;10.246;2022-12-18T02:36:47;23.53;;;11.23;;
18748;SDS011;9503;53.560;10.246;2022-12-18T02:39:15;24.47;;;11.10;;
18748;SDS011;9503;53.560;10.246;2022-12-18T02:41:45;22.57;;;11.67;;
18748;SDS011;9503;53.560;10.246;2022-12-18T02:44:13;22.90;;;11.37;;
18748;SDS011;9503;53.560;10.246;2022-12-18T02:46:41;25.33;;;10.63;;
18748;SDS011;9503;53.560;10.246;2022-12-18T02:49:16;27.27;;;11.17;;
18748;SDS011;9503;53.560;10.246;2022-12-18T02:51:55;23.83;;;10.27;;
18748;SDS011;9503;53.560;10.246;2022-12-18T02:54:31;22.70;;;10.50;;
18748;SDS011;9503;53.560;10.246;2022-12-18T02:57:12;19.43;;;10.77;;
18748;SDS011;9503;53.560;10.246;2022-12-18T02:59:46;28.97;;;11.47;;
18748;SDS011;9503;53.560;10.246;2022-12-18T03:02:21;27.47;;;10.87;;
18748;SDS011;9503;53.560;10.246;2022-12-18T03:04:55;23.30;;;11.30;;
18748;SDS011;9503;53.560;10.246;2022-12-18T03:07:28;23.37;;;11.40;;
18748;SDS011;9503;53.560;10.246;2022-12-18T03:10:01;23.23;;;10.47;;
18748;SDS011;9503;53.560;10.246;2022-12-18T03:12:31;22.33;;;11.10;;
18748;SDS011;9503;53.560;10.246;2022-12-18T03:15:02;23.57;;;11.07;;
18748;SDS011;9503;53.560;10.246;2022-12-18T03:17:34;28.13;;;11.93;;
18748;SDS011;9503;53.560;10.246;2022-12-18T03:20:04;21.30;;;10.97;;
18748;SDS011;9503;53.560;10.246;2022-12-18T03:22:36;26.10;;;10.90;;
18748;SDS011;9503;53.560;10.246;2022-12-18T03:25:05;25.50;;;12.03;;
18748;SDS011;9503;53.560;10.246;2022-12-18T03:27:36;27.70;;;12.23;;
18748;SDS011;9503;53.560;10.246;2022-12-18T03:30:09;24.63;;;12.00;;
18748;SDS011;9503;53.560;10.246;2022-12-18T03:32:38;26.03;;;11.97;;
18748;SDS011;9503;53.560;10.246;2022-12-18T03:35:09;25.53;;;11.50;;
18748;SDS011;9503;53.560;10.246;2022-12-18T03:37:39;26.67;;;10.97;;
18748;SDS011;9503;53.560;10.246;2022-12-18T03:40:06;24.20;;;11.40;;
18748;SDS011;9503;53.560;10.246;2022-12-18T03:42:37;24.83;;;11.50;;
18748;SDS011;9503;53.560;10.246;2022-12-18T03:45:11;27.27;;;11.30;;
18748;SDS011;9503;53.560;10.246;2022-12-18T03:47:46;27.87;;;11.47;;
18748;SDS011;9503;53.560;10.246;2022-12-18T03:50:25;24.33;;;11.03;;
18748;SDS011;9503;53.560;10.246;2022-12-18T03:53:02;23.37;;;11.03;;
18748;SDS011;9503;53.560;10.246;2022-12-18T03:55:38;25.83;;;10.73;;
18748;SDS011;9503;53.560;10.246;2022-12-18T03:58:08;23.30;;;11.13;;
18748;SDS011;9503;53.560;10.246;2022-12-18T04:00:40;23.90;;;11.70;;
18748;SDS011;9503;53.560;10.246;2022-12-18T04:03:08;21.63;;;11.17;;
18748;SDS011;9503;53.560;10.246;2022-12-18T04:05:37;22.47;;;11.80;;
18748;SDS011;9503;53.560;10.246;2022-12-18T04:08:04;23.57;;;11.73;;
18748;SDS011;9503;53.560;10.246;2022-12-18T04:10:31;27.50;;;13.27;;
18748;SDS011;9503;53.560;10.246;2022-12-18T04:12:58;28.20;;;12.47;;
18748;SDS011;9503;53.560;10.246;2022-12-18T04:15:26;23.63;;;12.40;;
18748;SDS011;9503;53.560;10.246;2022-12-18T04:17:53;23.90;;;10.90;;
18748;SDS011;9503;53.560;10.246;2022-12-18T04:20:19;29.60;;;11.73;;
18748;SDS011;9503;53.560;10.246;2022-12-18T04:22:47;25.53;;;12.07;;
18748;SDS011;9503;53.560;10.246;2022-12-18T04:25:14;32.87;;;12.13;;
18748;SDS011;9503;53.560;10.246;2022-12-18T04:27:40;20.70;;;10.33;;
18748;SDS011;9503;53.560;10.246;2022-12-18T04:30:07;25.37;;;11.37;;
18748;SDS011;9503;53.560;10.246;2022-12-18T04:32:35;24.77;;;12.10;;
18748;SDS011;9503;53.560;10.246;2022-12-18T04:35:02;24.37;;;11.60;;
18748;SDS011;9503;53.560;10.246;2022-12-18T04:37:31;26.30;;;12.07;;
18748;SDS011;9503;53.560;10.246;2022-12-18T04:39:58;25.93;;;11.50;;
18748;SDS011;9503;53.560;10.246;2022-12-18T04:42:24;28.47;;;11.50;;
18748;SDS011;9503;53.560;10.246;2022-12-18T04:44:51;26.87;;;12.07;;
18748;SDS011;9503;53.560;10.246;2022-12-18T04:47:18;25.57;;;11.73;;
18748;SDS011;9503;53.560;10.246;2022-12-18T04:49:46;25.67;;;12.07;;
18748;SDS011;9503;53.560;10.246;2022-12-18T04:52:12;26.20;;;12.50;;
18748;SDS011;9503;53.560;10.246;2022-12-18T04:54:39;29.50;;;12.07;;
18748;SDS011;9503;53.560;10.246;2022-12-18T04:57:06;24.10;;;12.53;;
18748;SDS011;9503;53.560;10.246;2022-12-18T04:59:32;26.60;;;11.97;;
18748;SDS011;9503;53.560;10.246;2022-12-18T05:01:59;31.00;;;12.50;;
18748;SDS011;9503;53.560;10.246;2022-12-18T05:04:26;24.40;;;11.90;;
18748;SDS011;9503;53.560;10.246;2022-12-18T05:06:54;28.73;;;12.70;;
18748;SDS011;9503;53.560;10.246;2022-12-18T05:09:20;26.80;;;12.60;;
18748;SDS011;9503;53.560;10.246;2022-12-18T05:11:47;23.03;;;11.60;;
18748;SDS011;9503;53.560;10.246;2022-12-18T05:14:14;23.67;;;12.03;;
18748;SDS011;9503;53.560;10.246;2022-12-18T05:16:40;28.13;;;12.70;;
18748;SDS011;9503;53.560;10.246;2022-12-18T05:19:07;27.53;;;13.13;;
18748;SDS011;9503;53.560;10.246;2022-12-18T05:21:33;27.30;;;12.57;;
18748;SDS011;9503;53.560;10.246;2022-12-18T05:24:01;29.73;;;13.63;;
18748;SDS011;9503;53.560;10.246;2022-12-18T05:26:28;28.97;;;13.00;;
18748;SDS011;9503;53.560;10.246;2022-12-18T05:28:55;26.93;;;11.90;;
18748;SDS011;9503;53.560;10.246;2022-12-18T05:31:21;28.40;;;12.73;;
18748;SDS011;9503;53.560;10.246;2022-12-18T05:33:48;24.80;;;11.10;;
18748;SDS011;9503;53.560;10.246;2022-12-18T05:36:15;29.10;;;11.60;;
18748;SDS011;9503;53.560;10.246;2022-12-18T05:38:42;27.87;;;12.97;;
18748;SDS011;9503;53.560;10.246;2022-12-18T05:41:10;28.33;;;13.07;;
18748;SDS011;9503;53.560;10.246;2022-12-18T05:43:37;31.97;;;13.40;;
18748;SDS011;9503;53.560;10.246;2022-12-18T05:46:05;23.90;;;12.03;;
18748;SDS011;9503;53.560;10.246;2022-12-18T05:48:32;28.37;;;13.20;;
18748;SDS011;9503;53.560;10.246;2022-12-18T05:51:02;30.40;;;12.30;;
18748;SDS011;9503;53.560;10.246;2022-12-18T05:53:32;26.97;;;12.77;;
18748;SDS011;9503;53.560;10.246;2022-12-18T05:55:59;23.97;;;11.93;;
18748;SDS011;9503;53.560;10.246;2022-12-18T05:58:27;29.27;;;13.37;;
18748;SDS011;9503;53.560;10.246;2022-12-18T06:00:54;26.70;;;13.27;;
18748;SDS011;9503;53.560;10.246;2022-12-18T06:03:21;31.20;;;13.90;;
18748;SDS011;9503;53.560;10.246;2022-12-18T06:05:47;32.50;;;13.87;;
18748;SDS011;9503;53.560;10.246;2022-12-18T06:08:14;38.47;;;14.40;;
18748;SDS011;9503;53.560;10.246;2022-12-18T06:10:41;30.93;;;13.50;;
18748;SDS011;9503;53.560;10.246;2022-12-18T06:13:08;28.77;;;12.87;;
18748;SDS011;9503;53.560;10.246;2022-12-18T06:15:37;30.00;;;13.13;;
18748;SDS011;9503;53.560;10.246;2022-12-18T06:18:04;31.47;;;13.23;;
18748;SDS011;9503;53.560;10.246;2022-12-18T06:20:30;27.33;;;13.43;;
18748;SDS011;9503;53.560;10.246;2022-12-18T06:22:57;30.23;;;12.80;;
18748;SDS011;9503;53.560;10.246;2022-12-18T06:25:24;27.77;;;13.03;;
18748;SDS011;9503;53.560;10.246;2022-12-18T06:27:51;32.57;;;13.67;;
18748;SDS011;9503;53.560;10.246;2022-12-18T06:30:17;29.03;;;12.80;;
18748;SDS011;9503;53.560;10.246;2022-12-18T06:32:46;30.63;;;13.17;;
18748;SDS011;9503;53.560;10.246;2022-12-18T06:35:14;32.40;;;13.73;;
18748;SDS011;9503;53.560;10.246;2022-12-18T06:37:40;29.43;;;13.10;;
18748;SDS011;9503;53.560;10.246;2022-12-18T06:40:08;33.00;;;13.57;;
18748;SDS011;9503;53.560;10.246;2022-12-18T06:42:35;35.13;;;14.20;;
18748;SDS011;9503;53.560;10.246;2022-12-18T06:45:02;28.27;;;13.37;;
18748;SDS011;9503;53.560;10.246;2022-12-18T06:47:28;30.20;;;14.20;;
18748;SDS011;9503;53.560;10.246;2022-12-18T06:49:56;31.87;;;13.27;;
18748;SDS011;9503;53.560;10.246;2022-12-18T06:52:23;38.90;;;14.00;;
18748;SDS011;9503;53.560;10.246;2022-12-18T06:54:50;31.87;;;13.53;;
18748;SDS011;9503;53.560;10.246;2022-12-18T06:57:16;29.30;;;13.40;;
18748;SDS011;9503;53.560;10.246;2022-12-18T06:59:43;29.90;;;12.93;;
18748;SDS011;9503;53.560;10.246;2022-12-18T07:02:10;34.30;;;13.77;;
18748;SDS011;9503;53.560;10.246;2022-12-18T07:04:37;28.87;;;14.17;;
18748;SDS011;9503;53.560;10.246;2022-12-18T07:07:05;32.50;;;14.33;;
18748;SDS011;9503;53.560;10.246;2022-12-18T07:09:32;28.60;;;13.63;;
18748;SDS011;9503;53.560;10.246;2022-12-18T07:11:58;29.37;;;14.37;;
18748;SDS011;9503;53.560;10.246;2022-12-18T07:14:25;33.10;;;14.20;;
18748;SDS011;9503;53.560;10.246;2022-12-18T07:16:52;28.10;;;12.63;;
18748;SDS011;9503;53.560;10.246;2022-12-18T07:19:18;28.90;;;13.40;;
18748;SDS011;9503;53.560;10.246;2022-12-18T07:21:45;36.70;;;16.07;;
18748;SDS011;9503;53.560;10.246;2022-12-18T07:24:13;30.13;;;14.00;;
18748;SDS011;9503;53.560;10.246;2022-12-18T07:26:39;35.13;;;14.07;;
18748;SDS011;9503;53.560;10.246;2022-12-18T07:29:06;32.13;;;14.47;;
18748;SDS011;9503;53.560;10.246;2022-12-18T07:31:33;34.70;;;13.60;;
18748;SDS011;9503;53.560;10.246;2022-12-18T07:34:00;32.13;;;14.30;;
18748;SDS011;9503;53.560;10.246;2022-12-18T07:36:26;32.43;;;13.90;;
18748;SDS011;9503;53.560;10.246;2022-12-18T07:38:53;31.47;;;14.00;;
18748;SDS011;9503;53.560;10.246;2022-12-18T07:41:22;31.77;;;14.13;;
18748;SDS011;9503;53.560;10.246;2022-12-18T07:43:49;34.00;;;14.30;;
18748;SDS011;9503;53.560;10.246;2022-12-18T07:46:15;30.07;;;13.57;;
18748;SDS011;9503;53.560;10.246;2022-12-18T07:48:42;31.27;;;14.13;;
18748;SDS011;9503;53.560;10.246;2022-12-18T07:51:09;38.30;;;14.00;;
18748;SDS011;9503;53.560;10.246;2022-12-18T07:53:36;35.43;;;15.50;;
18748;SDS011;9503;53.560;10.246;2022-12-18T07:56:04;36.00;;;14.03;;
18748;SDS011;9503;53.560;10.246;2022-12-18T07:58:34;31.63;;;13.93;;
18748;SDS011;9503;53.560;10.246;2022-12-18T08:01:02;33.20;;;13.73;;
18748;SDS011;9503;53.560;10.246;2022-12-18T08:03:30;37.17;;;14.57;;
18748;SDS011;9503;53.560;10.246;2022-12-18T08:05:58;38.03;;;14.43;;
18748;SDS011;9503;53.560;10.246;2022-12-18T08:08:26;36.03;;;15.67;;
18748;SDS011;9503;53.560;10.246;2022-12-18T08:10:52;33.07;;;14.37;;
18748;SDS011;9503;53.560;10.246;2022-12-18T08:13:19;38.00;;;15.63;;
18748;SDS011;9503;53.560;10.246;2022-12-18T08:15:48;33.83;;;14.67;;
18748;SDS011;9503;53.560;10.246;2022-12-18T08:18:22;31.70;;;14.20;;
18748;SDS011;9503;53.560;10.246;2022-12-18T08:20:48;32.53;;;15.37;;
18748;SDS011;9503;53.560;10.246;2022-12-18T08:23:15;28.07;;;14.53;;
18748;SDS011;9503;53.560;10.246;2022-12-18T08:25:42;35.70;;;14.17;;
18748;SDS011;9503;53.560;10.246;2022-12-18T08:28:09;30.80;;;14.33;;
18748;SDS011;9503;53.560;10.246;2022-12-18T08:30:35;32.27;;;14.93;;
18748;SDS011;9503;53.560;10.246;2022-12-18T08:33:04;36.63;;;15.93;;
18748;SDS011;9503;53.560;10.246;2022-12-18T08:35:34;40.50;;;15.00;;
18748;SDS011;9503;53.560;10.246;2022-12-18T08:38:01;32.40;;;14.20;;
18748;SDS011;9503;53.560;10.246;2022-12-18T08:40:28;36.40;;;15.37;;
18748;SDS011;9503;53.560;10.246;2022-12-18T08:42:55;32.53;;;14.37;;
18748;SDS011;9503;53.560;10.246;2022-12-18T08:45:39;32.43;;;15.10;;
18748;SDS011;9503;53.560;10.246;2022-12-18T08:48:07;31.63;;;14.33;;
18748;SDS011;9503;53.560;10.246;2022-12-18T08:50:34;44.10;;;14.80;;
18748;SDS011;9503;53.560;10.246;2022-12-18T08:53:00;33.83;;;15.00;;
18748;SDS011;9503;53.560;10.246;2022-12-18T08:55:27;41.90;;;17.80;;
18748;SDS011;9503;53.560;10.246;2022-12-18T08:57:54;40.93;;;16.43;;
18748;SDS011;9503;53.560;10.246;2022-12-18T09:00:20;37.33;;;16.23;;
18748;SDS011;9503;53.560;10.246;2022-12-18T09:02:47;38.73;;;16.00;;
18748;SDS011;9503;53.560;10.246;2022-12-18T09:05:15;35.13;;;15.97;;
18748;SDS011;9503;53.560;10.246;2022-12-18T09:07:42;40.27;;;15.73;;
18748;SDS011;9503;53.560;10.246;2022-12-18T09:10:08;36.80;;;14.80;;
18748;SDS011;9503;53.560;10.246;2022-12-18T09:12:35;40.53;;;16.83;;
18748;SDS011;9503;53.560;10.246;2022-12-18T09:15:02;35.13;;;14.40;;
18748;SDS011;9503;53.560;10.246;2022-12-18T09:17:29;34.53;;;14.43;;
18748;SDS011;9503;53.560;10.246;2022-12-18T09:19:55;31.70;;;14.27;;
18748;SDS011;9503;53.560;10.246;2022-12-18T09:22:23;34.13;;;13.70;;
18748;SDS011;9503;53.560;10.246;2022-12-18T09:24:50;33.03;;;14.63;;
18748;SDS011;9503;53.560;10.246;2022-12-18T09:27:16;33.47;;;14.27;;
18748;SDS011;9503;53.560;10.246;2022-12-18T09:29:43;35.57;;;14.50;;
18748;SDS011;9503;53.560;10.246;2022-12-18T09:32:10;31.37;;;13.80;;
18748;SDS011;9503;53.560;10.246;2022-12-18T09:34:36;36.30;;;14.90;;
18748;SDS011;9503;53.560;10.246;2022-12-18T09:37:03;34.50;;;14.87;;
18748;SDS011;9503;53.560;10.246;2022-12-18T09:39:31;34.30;;;14.37;;
18748;SDS011;9503;53.560;10.246;2022-12-18T09:41:58;34.47;;;14.37;;
18748;SDS011;9503;53.560;10.246;2022-12-18T09:44:25;34.77;;;14.90;;
18748;SDS011;9503;53.560;10.246;2022-12-18T09:47:00;33.40;;;14.97;;
18748;SDS011;9503;53.560;10.246;2022-12-18T09:49:32;28.37;;;13.43;;
18748;SDS011;9503;53.560;10.246;2022-12-18T09:52:04;34.20;;;15.00;;
18748;SDS011;9503;53.560;10.246;2022-12-18T09:54:39;31.67;;;13.83;;
18748;SDS011;9503;53.560;10.246;2022-12-18T09:57:10;30.77;;;14.97;;
18748;SDS011;9503;53.560;10.246;2022-12-18T09:59:40;29.50;;;14.63;;
18748;SDS011;9503;53.560;10.246;2022-12-18T10:02:12;31.87;;;13.43;;
18748;SDS011;9503;53.560;10.246;2022-12-18T10:04:41;28.80;;;13.97;;
18748;SDS011;9503;53.560;10.246;2022-12-18T10:07:09;34.47;;;15.30;;
18748;SDS011;9503;53.560;10.246;2022-12-18T10:09:46;32.43;;;13.63;;
18748;SDS011;9503;53.560;10.246;2022-12-18T10:12:26;38.33;;;15.53;;
18748;SDS011;9503;53.560;10.246;2022-12-18T10:15:00;32.17;;;14.17;;
18748;SDS011;9503;53.560;10.246;2022-12-18T10:17:34;28.87;;;14.83;;
18748;SDS011;9503;53.560;10.246;2022-12-18T10:20:09;31.30;;;14.80;;
18748;SDS011;9503;53.560;10.246;2022-12-18T10:22:43;33.03;;;14.20;;
18748;SDS011;9503;53.560;10.246;2022-12-18T10:25:19;30.43;;;13.77;;
18748;SDS011;9503;53.560;10.246;2022-12-18T10:27:51;32.50;;;14.67;;
18748;SDS011;9503;53.560;10.246;2022-12-18T10:30:20;31.67;;;13.67;;
18748;SDS011;9503;53.560;10.246;2022-12-18T10:32:48;28.90;;;13.87;;
18748;SDS011;9503;53.560;10.246;2022-12-18T10:35:16;28.57;;;13.27;;
18748;SDS011;9503;53.560;10.246;2022-12-18T10:38:03;28.23;;;13.30;;
18748;SDS011;9503;53.560;10.246;2022-12-18T10:40:33;32.07;;;13.40;;
18748;SDS011;9503;53.560;10.246;2022-12-18T10:43:14;29.80;;;14.07;;
18748;SDS011;9503;53.560;10.246;2022-12-18T10:45:56;30.20;;;13.97;;
18748;SDS011;9503;53.560;10.246;2022-12-18T10:48:28;30.13;;;14.13;;
18748;SDS011;9503;53.560;10.246;2022-12-18T10:50:56;29.70;;;14.03;;
18748;SDS011;9503;53.560;10.246;2022-12-18T10:53:23;30.20;;;13.97;;
18748;SDS011;9503;53.560;10.246;2022-12-18T10:55:53;34.57;;;14.63;;
18748;SDS011;9503;53.560;10.246;2022-12-18T10:58:25;29.13;;;13.07;;
18748;SDS011;9503;53.560;10.246;2022-12-18T11:01:01;28.43;;;14.03;;
18748;SDS011;9503;53.560;10.246;2022-12-18T11:03:31;31.73;;;14.90;;
18748;SDS011;9503;53.560;10.246;2022-12-18T11:06:01;28.77;;;13.73;;
18748;SDS011;9503;53.560;10.246;2022-12-18T11:08:30;31.57;;;14.53;;
18748;SDS011;9503;53.560;10.246;2022-12-18T11:10:58;28.43;;;13.83;;
18748;SDS011;9503;53.560;10.246;2022-12-18T11:13:26;27.33;;;12.70;;
18748;SDS011;9503;53.560;10.246;2022-12-18T11:15:53;32.20;;;13.87;;
18748;SDS011;9503;53.560;10.246;2022-12-18T11:18:22;27.67;;;12.83;;
18748;SDS011;9503;53.560;10.246;2022-12-18T11:20:53;23.13;;;12.00;;
18748;SDS011;9503;53.560;10.246;2022-12-18T11:23:22;27.70;;;11.80;;
18748;SDS011;9503;53.560;10.246;2022-12-18T11:25:50;29.67;;;12.83;;
18748;SDS011;9503;53.560;10.246;2022-12-18T11:28:27;25.60;;;11.93;;
18748;SDS011;9503;53.560;10.246;2022-12-18T11:31:09;24.50;;;11.73;;
18748;SDS011;9503;53.560;10.246;2022-12-18T11:33:43;26.60;;;13.03;;
18748;SDS011;9503;53.560;10.246;2022-12-18T11:36:15;24.70;;;12.53;;
18748;SDS011;9503;53.560;10.246;2022-12-18T11:38:43;27.23;;;12.77;;
18748;SDS011;9503;53.560;10.246;2022-12-18T11:41:15;27.60;;;12.77;;
18748;SDS011;9503;53.560;10.246;2022-12-18T11:43:50;28.93;;;13.10;;
18748;SDS011;9503;53.560;10.246;2022-12-18T11:46:24;24.23;;;12.07;;
18748;SDS011;9503;53.560;10.246;2022-12-18T11:48:59;24.23;;;12.07;;
18748;SDS011;9503;53.560;10.246;2022-12-18T11:51:33;29.27;;;13.07;;
18748;SDS011;9503;53.560;10.246;2022-12-18T11:54:07;26.50;;;12.53;;
18748;SDS011;9503;53.560;10.246;2022-12-18T11:56:39;25.23;;;11.57;;
18748;SDS011;9503;53.560;10.246;2022-12-18T11:59:15;24.33;;;10.40;;
18748;SDS011;9503;53.560;10.246;2022-12-18T12:01:54;24.47;;;10.97;;
18748;SDS011;9503;53.560;10.246;2022-12-18T12:04:41;25.50;;;11.57;;
18748;SDS011;9503;53.560;10.246;2022-12-18T12:07:21;24.77;;;11.30;;
18748;SDS011;9503;53.560;10.246;2022-12-18T12:09:59;23.40;;;10.63;;
18748;SDS011;9503;53.560;10.246;2022-12-18T12:12:36;21.87;;;10.23;;
18748;SDS011;9503;53.560;10.246;2022-12-18T12:15:23;22.73;;;10.47;;
18748;SDS011;9503;53.560;10.246;2022-12-18T12:17:59;28.77;;;11.23;;
18748;SDS011;9503;53.560;10.246;2022-12-18T12:20:33;23.77;;;10.73;;
18748;SDS011;9503;53.560;10.246;2022-12-18T12:23:12;24.53;;;10.17;;
18748;SDS011;9503;53.560;10.246;2022-12-18T12:25:48;25.57;;;10.80;;
18748;SDS011;9503;53.560;10.246;2022-12-18T12:28:20;22.53;;;10.27;;
18748;SDS011;9503;53.560;10.246;2022-12-18T12:31:00;24.20;;;10.17;;
18748;SDS011;9503;53.560;10.246;2022-12-18T12:33:39;23.60;;;10.40;;
18748;SDS011;9503;53.560;10.246;2022-12-18T12:36:17;22.53;;;10.90;;
18748;SDS011;9503;53.560;10.246;2022-12-18T12:38:51;28.37;;;10.93;;
18748;SDS011;9503;53.560;10.246;2022-12-18T12:41:23;23.00;;;9.97;;
18748;SDS011;9503;53.560;10.246;2022-12-18T12:44:13;23.80;;;10.53;;
18748;SDS011;9503;53.560;10.246;2022-12-18T12:46:46;26.23;;;12.17;;
18748;SDS011;9503;53.560;10.246;2022-12-18T12:49:15;27.13;;;10.43;;
18748;SDS011;9503;53.560;10.246;2022-12-18T12:51:45;22.70;;;10.60;;
18748;SDS011;9503;53.560;10.246;2022-12-18T12:54:16;25.57;;;10.10;;
18748;SDS011;9503;53.560;10.246;2022-12-18T12:56:47;25.50;;;11.07;;
18748;SDS011;9503;53.560;10.246;2022-12-18T12:59:22;23.33;;;10.77;;
18748;SDS011;9503;53.560;10.246;2022-12-18T13:01:57;25.83;;;12.00;;
18748;SDS011;9503;53.560;10.246;2022-12-18T13:04:33;25.40;;;12.40;;
18748;SDS011;9503;53.560;10.246;2022-12-18T13:07:06;29.63;;;12.07;;
18748;SDS011;9503;53.560;10.246;2022-12-18T13:12:54;30.53;;;12.73;;
18748;SDS011;9503;53.560;10.246;2022-12-18T13:15:21;28.43;;;13.37;;
18748;SDS011;9503;53.560;10.246;2022-12-18T13:17:51;28.57;;;12.17;;
18748;SDS011;9503;53.560;10.246;2022-12-18T13:20:32;34.07;;;12.47;;
18748;SDS011;9503;53.560;10.246;2022-12-18T13:23:01;32.10;;;13.30;;
18748;SDS011;9503;53.560;10.246;2022-12-18T13:25:45;32.73;;;13.43;;
18748;SDS011;9503;53.560;10.246;2022-12-18T13:28:12;31.27;;;12.70;;
18748;SDS011;9503;53.560;10.246;2022-12-18T13:30:49;37.20;;;13.60;;
18748;SDS011;9503;53.560;10.246;2022-12-18T13:36:23;31.63;;;12.23;;
18748;SDS011;9503;53.560;10.246;2022-12-18T13:39:10;25.73;;;12.70;;
18748;SDS011;9503;53.560;10.246;2022-12-18T13:41:47;25.63;;;11.43;;
18748;SDS011;9503;53.560;10.246;2022-12-18T13:44:21;31.67;;;13.87;;
18748;SDS011;9503;53.560;10.246;2022-12-18T13:46:52;31.83;;;13.57;;
18748;SDS011;9503;53.560;10.246;2022-12-18T13:49:22;27.17;;;12.23;;
18748;SDS011;9503;53.560;10.246;2022-12-18T13:51:52;32.27;;;13.43;;
18748;SDS011;9503;53.560;10.246;2022-12-18T13:54:22;36.53;;;13.40;;
18748;SDS011;9503;53.560;10.246;2022-12-18T13:56:54;34.53;;;14.03;;
18748;SDS011;9503;53.560;10.246;2022-12-18T13:59:21;35.20;;;13.60;;
18748;SDS011;9503;53.560;10.246;2022-12-18T14:01:51;32.83;;;13.97;;
18748;SDS011;9503;53.560;10.246;2022-12-18T14:04:22;36.73;;;13.40;;
18748;SDS011;9503;53.560;10.246;2022-12-18T14:06:51;38.20;;;15.20;;
18748;SDS011;9503;53.560;10.246;2022-12-18T14:09:23;35.70;;;14.80;;
18748;SDS011;9503;53.560;10.246;2022-12-18T14:11:52;33.33;;;13.83;;
18748;SDS011;9503;53.560;10.246;2022-12-18T14:14:42;33.77;;;13.77;;
18748;SDS011;9503;53.560;10.246;2022-12-18T14:17:11;38.57;;;13.13;;
18748;SDS011;9503;53.560;10.246;2022-12-18T14:19:42;36.10;;;14.53;;
18748;SDS011;9503;53.560;10.246;2022-12-18T14:22:13;40.23;;;14.57;;
18748;SDS011;9503;53.560;10.246;2022-12-18T14:24:42;37.30;;;13.47;;
18748;SDS011;9503;53.560;10.246;2022-12-18T14:27:13;39.23;;;15.90;;
18748;SDS011;9503;53.560;10.246;2022-12-18T14:29:47;39.77;;;14.83;;
18748;SDS011;9503;53.560;10.246;2022-12-18T14:32:15;42.20;;;16.03;;
18748;SDS011;9503;53.560;10.246;2022-12-18T14:34:46;42.67;;;16.30;;
18748;SDS011;9503;53.560;10.246;2022-12-18T14:37:14;48.17;;;17.70;;
18748;SDS011;9503;53.560;10.246;2022-12-18T14:39:52;48.27;;;15.53;;
18748;SDS011;9503;53.560;10.246;2022-12-18T14:42:23;48.87;;;17.70;;
18748;SDS011;9503;53.560;10.246;2022-12-18T14:47:52;47.07;;;17.27;;
18748;SDS011;9503;53.560;10.246;2022-12-18T14:50:20;42.33;;;17.00;;